Time;durP1;ratioP1;P1;durP2;ratioP2;P2;SDS_P1;SDS_P2;PMS_P1;PMS_P2;Temp;Humidity;BMP_temperature;BMP_pressure;BME280_temperature;BME280_humidity;BME280_pressure;Samples;Min_cycle;Max_cycle;Signal;HPM_P1;HPM_P2
2022/12/28 00:01:55;;;;;;;12.30;5.80;;;;;;;;;;6270535;22;20230;-91
2022/12/28 00:05:01;;;;;;;13.77;5.53;;;;;;;;;;6269520;22;20768;-89
2022/12/28 00:08:07;;;;;;;12.80;5.37;;;;;;;;;;6270946;22;20170;-88
2022/12/28 00:11:13;;;;;;;11.37;5.03;;;;;;;;;;6268431;22;20162;-88
2022/12/28 00:14:19;;;;;;;10.07;4.90;;;;;;;;;;6267870;22;20212;-89
2022/12/28 00:17:24;;;;;;;9.90;4.83;;;;;;;;;;6269334;22;20177;-91
2022/12/28 00:20:30;;;;;;;10.27;5.23;;;;;;;;;;6270469;22;20600;-92
2022/12/28 00:23:35;;;;;;;27.70;5.20;;;;;;;;;;6270022;22;20255;-91
2022/12/28 00:26:40;;;;;;;15.07;6.17;;;;;;;;;;6270486;22;20498;-87
2022/12/28 00:29:45;;;;;;;13.47;6.60;;;;;;;;;;6271423;22;20149;-91
2022/12/28 00:32:51;;;;;;;14.70;6.37;;;;;;;;;;6269448;22;20169;-89
2022/12/28 00:36:00;;;;;;;22.00;8.80;;;;;;;;;;6270789;22;20173;-92
2022/12/28 00:39:05;;;;;;;21.03;6.10;;;;;;;;;;6270953;22;20202;-91
2022/12/28 00:42:12;;;;;;;18.87;6.20;;;;;;;;;;6269836;22;20165;-90
2022/12/28 00:45:17;;;;;;;22.90;6.57;;;;;;;;;;6269834;22;20166;-87
2022/12/28 00:48:23;;;;;;;11.53;5.63;;;;;;;;;;6269357;22;20169;-89
2022/12/28 00:51:29;;;;;;;13.20;5.80;;;;;;;;;;6269952;22;20144;-88
2022/12/28 00:54:34;;;;;;;11.50;5.30;;;;;;;;;;6289494;22;20165;-90
2022/12/28 00:57:40;;;;;;;12.43;5.70;;;;;;;;;;6271600;22;20235;-90
2022/12/28 01:00:46;;;;;;;18.03;5.77;;;;;;;;;;6270970;22;20185;-89
2022/12/28 01:03:51;;;;;;;12.03;5.23;;;;;;;;;;6268364;22;20161;-89
2022/12/28 01:06:58;;;;;;;22.57;6.07;;;;;;;;;;6270704;22;20181;-87
2022/12/28 01:10:03;;;;;;;24.40;6.27;;;;;;;;;;6270740;22;20170;-90
2022/12/28 01:13:08;;;;;;;16.63;6.57;;;;;;;;;;6272342;22;20165;-89
2022/12/28 01:16:14;;;;;;;16.17;6.37;;;;;;;;;;6270739;22;20164;-87
2022/12/28 01:19:20;;;;;;;22.30;6.47;;;;;;;;;;6269470;22;20232;-89
2022/12/28 01:22:27;;;;;;;11.90;5.63;;;;;;;;;;6271289;22;20153;-89
2022/12/28 01:25:33;;;;;;;12.60;6.13;;;;;;;;;;6271535;22;20162;-89
2022/12/28 01:28:38;;;;;;;12.07;6.37;;;;;;;;;;6271525;22;20170;-89
2022/12/28 01:31:43;;;;;;;12.83;5.70;;;;;;;;;;6271584;22;20173;-87
2022/12/28 01:34:50;;;;;;;11.10;5.27;;;;;;;;;;6270930;22;20222;-89
2022/12/28 01:37:58;;;;;;;11.53;5.17;;;;;;;;;;6270639;22;20166;-89
2022/12/28 01:41:07;;;;;;;11.93;5.30;;;;;;;;;;6270774;22;20173;-85
2022/12/28 01:44:31;;;;;;;11.13;4.80;;;;;;;;;;6271482;22;20251;-88
2022/12/28 01:47:36;;;;;;;12.20;4.77;;;;;;;;;;6270174;22;20161;-89
2022/12/28 01:50:43;;;;;;;11.77;5.30;;;;;;;;;;6269506;22;20236;-89
2022/12/28 01:53:53;;;;;;;9.43;4.97;;;;;;;;;;6270660;22;20228;-89
2022/12/28 01:57:00;;;;;;;8.80;4.73;;;;;;;;;;6271034;22;20166;-90
2022/12/28 02:00:09;;;;;;;11.47;4.50;;;;;;;;;;6271857;22;20201;-90
2022/12/28 02:03:25;;;;;;;9.43;4.63;;;;;;;;;;6271696;22;20491;-88
2022/12/28 02:06:30;;;;;;;8.97;4.87;;;;;;;;;;6269171;22;20496;-89
2022/12/28 02:09:40;;;;;;;9.67;5.27;;;;;;;;;;6269739;22;20174;-90
2022/12/28 02:12:45;;;;;;;8.77;4.70;;;;;;;;;;6269944;22;20170;-88
2022/12/28 02:15:52;;;;;;;12.57;5.40;;;;;;;;;;6268605;22;20190;-89
2022/12/28 02:18:56;;;;;;;9.23;4.83;;;;;;;;;;6270749;22;20193;-90
2022/12/28 02:22:14;;;;;;;11.67;4.80;;;;;;;;;;6268279;22;20165;-89
2022/12/28 02:25:37;;;;;;;12.90;4.77;;;;;;;;;;6258068;22;20522;-90
2022/12/28 02:28:58;;;;;;;13.90;4.93;;;;;;;;;;6203689;22;20690;-88
2022/12/28 02:32:10;;;;;;;11.40;5.30;;;;;;;;;;6126917;23;20196;-88
2022/12/28 02:35:22;;;;;;;17.77;5.63;;;;;;;;;;6023596;23;20163;-88
2022/12/28 02:38:31;;;;;;;12.77;4.90;;;;;;;;;;6023829;23;20184;-89
2022/12/28 02:41:41;;;;;;;10.70;5.73;;;;;;;;;;6024043;23;20221;-89
2022/12/28 02:51:45;;;;;;;33.97;6.97;;;;;;;;;;6023140;23;20177;-91
2022/12/28 02:58:49;;;;;;;21.70;6.33;;;;;;;;;;6023030;23;20201;-89
2022/12/28 03:02:17;;;;;;;17.03;6.23;;;;;;;;;;6025007;23;20239;-90
2022/12/28 03:08:58;;;;;;;31.67;5.47;;;;;;;;;;6023795;23;20188;-89
2022/12/28 03:12:07;;;;;;;32.23;6.23;;;;;;;;;;6027303;23;20156;-92
2022/12/28 03:15:14;;;;;;;24.83;6.43;;;;;;;;;;6024344;23;20164;-91
2022/12/28 03:32:02;;;;;;;16.33;5.87;;;;;;;;;;6052471;23;20202;-93
2022/12/28 03:35:08;;;;;;;14.27;5.90;;;;;;;;;;6208277;23;20175;-89
2022/12/28 03:38:26;;;;;;;10.70;5.30;;;;;;;;;;6209862;23;20295;-90
2022/12/28 03:41:34;;;;;;;16.80;6.60;;;;;;;;;;6209359;23;20172;-88
2022/12/28 03:44:55;;;;;;;11.37;5.57;;;;;;;;;;6210456;23;20167;-91
2022/12/28 03:48:01;;;;;;;14.60;5.87;;;;;;;;;;6209319;23;20163;-91
2022/12/28 03:51:07;;;;;;;14.30;6.23;;;;;;;;;;6211581;23;20150;-93
2022/12/28 03:54:15;;;;;;;12.03;6.07;;;;;;;;;;6210773;23;20610;-89
2022/12/28 03:57:22;;;;;;;13.80;6.33;;;;;;;;;;6212083;23;20171;-90
2022/12/28 04:00:28;;;;;;;12.60;6.27;;;;;;;;;;6211722;23;20199;-90
2022/12/28 04:03:34;;;;;;;24.03;7.40;;;;;;;;;;6211673;23;20170;-91
2022/12/28 04:06:39;;;;;;;12.67;6.20;;;;;;;;;;6212564;23;20175;-92
2022/12/28 04:09:46;;;;;;;17.77;6.20;;;;;;;;;;6212884;23;20171;-89
2022/12/28 04:12:55;;;;;;;19.00;5.93;;;;;;;;;;6210114;23;20175;-89
2022/12/28 04:16:04;;;;;;;16.90;7.03;;;;;;;;;;6230657;23;20167;-90
2022/12/28 04:19:11;;;;;;;14.10;6.60;;;;;;;;;;6210978;23;20641;-90
2022/12/28 04:22:16;;;;;;;20.70;6.87;;;;;;;;;;6213216;23;20198;-90
2022/12/28 04:25:23;;;;;;;11.83;6.93;;;;;;;;;;6211148;23;20238;-90
2022/12/28 04:28:28;;;;;;;11.37;6.50;;;;;;;;;;6211378;23;20159;-88
2022/12/28 04:32:00;;;;;;;15.60;6.30;;;;;;;;;;6217479;23;20186;-90
2022/12/28 04:35:05;;;;;;;13.73;5.97;;;;;;;;;;6211484;23;20226;-88
2022/12/28 04:38:18;;;;;;;14.37;6.37;;;;;;;;;;6211156;23;20218;-93
2022/12/28 04:41:24;;;;;;;10.63;6.07;;;;;;;;;;6211036;23;20206;-89
2022/12/28 04:44:29;;;;;;;12.17;5.97;;;;;;;;;;6229501;23;20596;-89
2022/12/28 04:47:34;;;;;;;9.67;5.97;;;;;;;;;;6211651;23;20218;-89
2022/12/28 04:50:40;;;;;;;13.27;6.40;;;;;;;;;;6209897;23;20179;-90
2022/12/28 04:53:45;;;;;;;14.60;6.43;;;;;;;;;;6212269;23;20163;-89
2022/12/28 04:56:51;;;;;;;11.70;5.97;;;;;;;;;;6211341;23;20167;-90
2022/12/28 04:59:56;;;;;;;13.23;6.20;;;;;;;;;;6211354;23;20199;-88
2022/12/28 05:03:02;;;;;;;12.10;5.83;;;;;;;;;;6209620;23;20167;-90
2022/12/28 05:06:09;;;;;;;15.27;6.80;;;;;;;;;;6211555;23;20190;-88
2022/12/28 05:09:14;;;;;;;13.43;6.77;;;;;;;;;;6212175;23;20186;-90
2022/12/28 05:12:20;;;;;;;12.90;6.70;;;;;;;;;;6211243;23;20174;-88
2022/12/28 05:15:25;;;;;;;12.10;6.70;;;;;;;;;;6210859;23;20168;-87
2022/12/28 05:18:30;;;;;;;12.43;6.53;;;;;;;;;;6210282;23;20186;-90
2022/12/28 05:21:35;;;;;;;14.47;6.70;;;;;;;;;;6209438;23;20163;-91
2022/12/28 05:24:40;;;;;;;12.30;6.40;;;;;;;;;;6210707;23;20196;-88
2022/12/28 05:27:47;;;;;;;14.63;7.00;;;;;;;;;;6210282;23;20617;-88
2022/12/28 05:30:53;;;;;;;14.80;6.27;;;;;;;;;;6211155;23;20267;-90
2022/12/28 05:33:58;;;;;;;12.60;6.20;;;;;;;;;;6231243;23;20194;-88
2022/12/28 05:37:03;;;;;;;14.03;7.13;;;;;;;;;;6240217;23;20170;-88
2022/12/28 05:40:09;;;;;;;14.47;6.90;;;;;;;;;;6239598;23;20221;-88
2022/12/28 05:43:16;;;;;;;14.00;6.43;;;;;;;;;;6238306;23;20216;-90
2022/12/28 05:46:23;;;;;;;13.23;6.57;;;;;;;;;;6240165;23;20170;-89
2022/12/28 05:49:28;;;;;;;11.30;6.47;;;;;;;;;;6239780;23;20185;-89
2022/12/28 05:52:35;;;;;;;12.70;6.27;;;;;;;;;;6257860;23;20175;-90
2022/12/28 05:55:40;;;;;;;13.50;6.53;;;;;;;;;;6240340;22;20162;-90
2022/12/28 05:58:47;;;;;;;14.13;6.67;;;;;;;;;;6237682;23;20166;-90
2022/12/28 06:01:52;;;;;;;11.47;6.33;;;;;;;;;;6242474;23;20178;-92
2022/12/28 06:04:57;;;;;;;14.17;7.80;;;;;;;;;;6242693;22;20237;-91
2022/12/28 06:08:02;;;;;;;14.37;7.40;;;;;;;;;;6242399;23;20167;-93
2022/12/28 06:11:09;;;;;;;13.40;6.50;;;;;;;;;;6243869;22;20219;-90
2022/12/28 06:14:15;;;;;;;15.40;7.60;;;;;;;;;;6243165;22;20174;-90
2022/12/28 06:17:20;;;;;;;14.73;7.20;;;;;;;;;;6242723;22;20175;-88
2022/12/28 06:20:25;;;;;;;15.17;7.40;;;;;;;;;;6243676;23;20661;-91
2022/12/28 06:23:30;;;;;;;13.80;7.07;;;;;;;;;;6245314;22;20162;-90
2022/12/28 06:26:37;;;;;;;17.10;7.73;;;;;;;;;;6244016;22;20151;-92
2022/12/28 06:29:43;;;;;;;13.13;6.97;;;;;;;;;;6244187;22;20162;-88
2022/12/28 06:32:49;;;;;;;15.10;6.80;;;;;;;;;;6243369;22;20186;-88
2022/12/28 06:35:54;;;;;;;13.47;7.47;;;;;;;;;;6243700;23;20163;-92
2022/12/28 06:39:00;;;;;;;13.10;6.70;;;;;;;;;;6244417;22;20213;-90
2022/12/28 06:42:05;;;;;;;15.43;7.43;;;;;;;;;;6243545;22;20175;-89
2022/12/28 06:45:12;;;;;;;15.83;7.80;;;;;;;;;;6242551;22;20217;-90
2022/12/28 06:48:17;;;;;;;15.37;7.47;;;;;;;;;;6243107;22;20155;-88
2022/12/28 06:51:23;;;;;;;15.90;7.57;;;;;;;;;;6262762;23;20222;-89
2022/12/28 06:54:28;;;;;;;13.33;6.77;;;;;;;;;;6244431;22;20205;-90
2022/12/28 06:57:33;;;;;;;17.97;7.43;;;;;;;;;;6242874;22;20166;-90
2022/12/28 07:00:40;;;;;;;14.77;7.40;;;;;;;;;;6243188;22;20182;-91
2022/12/28 07:03:46;;;;;;;15.27;7.57;;;;;;;;;;6242210;22;20155;-89
2022/12/28 07:06:51;;;;;;;14.90;8.07;;;;;;;;;;6241413;23;20170;-89
2022/12/28 07:09:56;;;;;;;17.67;7.73;;;;;;;;;;6240600;23;20165;-89
2022/12/28 07:13:01;;;;;;;18.77;8.13;;;;;;;;;;6240010;23;20219;-87
2022/12/28 07:16:10;;;;;;;15.73;7.70;;;;;;;;;;6242709;22;20166;-91
2022/12/28 07:19:16;;;;;;;15.13;7.50;;;;;;;;;;6241333;22;20163;-87
2022/12/28 07:22:21;;;;;;;17.57;7.90;;;;;;;;;;6244663;22;20211;-91
2022/12/28 07:25:25;;;;;;;13.93;7.63;;;;;;;;;;6242905;22;20163;-86
2022/12/28 07:28:30;;;;;;;13.43;7.43;;;;;;;;;;6242826;22;20598;-88
2022/12/28 07:31:38;;;;;;;17.33;8.50;;;;;;;;;;6242334;22;20159;-88
2022/12/28 07:34:43;;;;;;;15.50;7.00;;;;;;;;;;6242397;22;20226;-89
2022/12/28 07:37:49;;;;;;;13.53;7.00;;;;;;;;;;6243637;23;20165;-89
2022/12/28 07:40:54;;;;;;;14.60;6.73;;;;;;;;;;6243664;22;20202;-92
2022/12/28 07:43:59;;;;;;;15.67;6.90;;;;;;;;;;6243851;22;20236;-90
2022/12/28 07:47:05;;;;;;;14.13;6.50;;;;;;;;;;6240751;22;20178;-90
2022/12/28 07:50:11;;;;;;;13.07;6.53;;;;;;;;;;6241837;22;20230;-89
2022/12/28 07:53:16;;;;;;;16.47;7.60;;;;;;;;;;6241409;23;20186;-88
2022/12/28 07:56:21;;;;;;;15.43;7.70;;;;;;;;;;6241939;23;20190;-90
2022/12/28 07:59:27;;;;;;;19.30;8.20;;;;;;;;;;6242152;23;20166;-89
2022/12/28 08:02:33;;;;;;;16.23;8.43;;;;;;;;;;6240629;22;20166;-90
2022/12/28 08:05:39;;;;;;;15.80;7.10;;;;;;;;;;6241103;22;20182;-88
2022/12/28 08:08:45;;;;;;;14.33;7.27;;;;;;;;;;6241999;23;20154;-89
2022/12/28 08:11:50;;;;;;;12.37;6.63;;;;;;;;;;6244204;22;20208;-90
2022/12/28 08:14:56;;;;;;;13.87;6.97;;;;;;;;;;6241943;23;20241;-89
2022/12/28 08:18:02;;;;;;;15.77;7.70;;;;;;;;;;6240144;23;20162;-89
2022/12/28 08:21:08;;;;;;;18.17;7.67;;;;;;;;;;6242494;22;20258;-88
2022/12/28 08:24:14;;;;;;;15.70;7.73;;;;;;;;;;6242471;23;20177;-90
2022/12/28 08:27:20;;;;;;;18.13;8.20;;;;;;;;;;6242029;22;20209;-88
2022/12/28 08:30:25;;;;;;;16.07;7.97;;;;;;;;;;6242707;22;20201;-88
2022/12/28 08:33:32;;;;;;;14.97;7.83;;;;;;;;;;6242133;23;20190;-89
2022/12/28 08:36:37;;;;;;;16.30;7.77;;;;;;;;;;6242254;23;20174;-90
2022/12/28 08:39:42;;;;;;;15.67;7.53;;;;;;;;;;6242929;22;20163;-87
2022/12/28 08:42:48;;;;;;;13.90;7.03;;;;;;;;;;6240100;23;20190;-88
2022/12/28 08:45:58;;;;;;;18.17;8.13;;;;;;;;;;6241807;23;20185;-90
2022/12/28 08:49:05;;;;;;;21.57;9.00;;;;;;;;;;6242246;23;20166;-92
2022/12/28 08:52:10;;;;;;;24.00;9.43;;;;;;;;;;6242484;22;20214;-88
2022/12/28 08:55:15;;;;;;;19.60;9.53;;;;;;;;;;6242622;22;20162;-90
2022/12/28 08:58:20;;;;;;;15.47;7.60;;;;;;;;;;6243277;22;20170;-89
2022/12/28 09:01:27;;;;;;;12.77;6.53;;;;;;;;;;6243453;23;20198;-88
2022/12/28 09:04:34;;;;;;;13.63;6.77;;;;;;;;;;6244373;23;20166;-89
2022/12/28 09:07:39;;;;;;;14.03;7.17;;;;;;;;;;6245518;23;20166;-91
2022/12/28 09:10:45;;;;;;;14.47;6.83;;;;;;;;;;6243243;22;20170;-90
2022/12/28 09:13:50;;;;;;;12.53;6.57;;;;;;;;;;6242489;22;20218;-89
2022/12/28 09:16:56;;;;;;;15.43;7.13;;;;;;;;;;6245241;23;20146;-89
2022/12/28 09:20:02;;;;;;;14.50;6.57;;;;;;;;;;6244708;22;20254;-92
2022/12/28 09:23:07;;;;;;;13.97;6.73;;;;;;;;;;6244138;22;20614;-90
2022/12/28 09:26:13;;;;;;;17.30;7.57;;;;;;;;;;6246195;22;20151;-89
2022/12/28 09:29:19;;;;;;;13.30;7.57;;;;;;;;;;6246711;23;20223;-91
2022/12/28 09:32:25;;;;;;;13.50;7.00;;;;;;;;;;6247204;23;20219;-89
2022/12/28 09:35:32;;;;;;;15.77;7.73;;;;;;;;;;6243937;22;20166;-91
2022/12/28 09:38:40;;;;;;;15.00;7.00;;;;;;;;;;6241727;23;20170;-88
2022/12/28 09:41:49;;;;;;;15.07;6.57;;;;;;;;;;6246638;22;20178;-87
2022/12/28 09:44:59;;;;;;;19.93;8.00;;;;;;;;;;6244443;23;20633;-90
2022/12/28 09:48:11;;;;;;;14.47;7.13;;;;;;;;;;6245850;22;20278;-90
2022/12/28 09:51:18;;;;;;;16.60;7.90;;;;;;;;;;6244879;22;20235;-90
2022/12/28 09:54:23;;;;;;;16.53;7.67;;;;;;;;;;6243842;22;20231;-89
2022/12/28 09:57:30;;;;;;;15.60;7.40;;;;;;;;;;6245248;23;20163;-92
2022/12/28 10:00:38;;;;;;;16.33;7.53;;;;;;;;;;6242655;23;20178;-89
2022/12/28 10:03:44;;;;;;;17.47;7.57;;;;;;;;;;6243042;22;20177;-89
2022/12/28 10:06:51;;;;;;;15.17;7.77;;;;;;;;;;6242211;23;20162;-88
2022/12/28 10:09:57;;;;;;;19.20;9.23;;;;;;;;;;6241057;22;20178;-88
2022/12/28 10:13:12;;;;;;;13.27;7.30;;;;;;;;;;6243017;23;20162;-89
2022/12/28 10:16:18;;;;;;;13.27;7.37;;;;;;;;;;6241825;22;20170;-90
2022/12/28 10:19:24;;;;;;;15.10;8.10;;;;;;;;;;6243318;23;20170;-90
2022/12/28 10:22:37;;;;;;;15.63;7.67;;;;;;;;;;6242368;23;20198;-89
2022/12/28 10:25:42;;;;;;;13.77;7.90;;;;;;;;;;6242868;22;20162;-88
2022/12/28 10:28:49;;;;;;;18.13;7.50;;;;;;;;;;6240248;22;20227;-89
2022/12/28 10:32:00;;;;;;;16.57;7.73;;;;;;;;;;6241435;22;20166;-89
2022/12/28 10:35:09;;;;;;;15.97;8.50;;;;;;;;;;6242106;22;20171;-87
2022/12/28 10:38:22;;;;;;;14.90;7.27;;;;;;;;;;6239862;22;20166;-88
2022/12/28 10:41:35;;;;;;;16.20;8.40;;;;;;;;;;6242261;22;20181;-89
2022/12/28 10:44:42;;;;;;;14.17;7.40;;;;;;;;;;6238742;22;20496;-89
2022/12/28 10:47:48;;;;;;;15.47;7.93;;;;;;;;;;6239832;22;20209;-89
2022/12/28 10:50:54;;;;;;;15.83;7.50;;;;;;;;;;6240184;22;20154;-89
2022/12/28 10:54:01;;;;;;;16.57;7.70;;;;;;;;;;6239040;22;20163;-88
2022/12/28 10:57:05;;;;;;;15.87;7.63;;;;;;;;;;6241182;23;20150;-89
2022/12/28 11:00:15;;;;;;;11.80;7.07;;;;;;;;;;6240051;23;20174;-88
2022/12/28 11:03:24;;;;;;;13.60;7.20;;;;;;;;;;6239764;22;20214;-89
2022/12/28 11:06:30;;;;;;;21.90;10.80;;;;;;;;;;6238991;22;20235;-89
2022/12/28 11:09:37;;;;;;;23.57;11.17;;;;;;;;;;6238344;23;20178;-87
2022/12/28 11:12:45;;;;;;;17.43;7.63;;;;;;;;;;6237369;23;20151;-90
2022/12/28 11:15:53;;;;;;;30.07;13.43;;;;;;;;;;6239041;23;20165;-88
2022/12/28 11:18:58;;;;;;;33.10;15.47;;;;;;;;;;6239843;22;20186;-88
2022/12/28 11:22:03;;;;;;;28.47;13.40;;;;;;;;;;6239230;22;20329;-89
2022/12/28 11:25:15;;;;;;;15.57;8.40;;;;;;;;;;6235205;22;20233;-89
2022/12/28 11:28:22;;;;;;;17.70;8.87;;;;;;;;;;6239065;23;20170;-87
2022/12/28 11:31:30;;;;;;;21.53;9.93;;;;;;;;;;6237303;22;20324;-88
2022/12/28 11:34:36;;;;;;;18.30;7.47;;;;;;;;;;6238508;23;20648;-88
2022/12/28 11:37:49;;;;;;;14.57;7.77;;;;;;;;;;6238403;22;20198;-88
2022/12/28 11:40:55;;;;;;;15.50;7.60;;;;;;;;;;6235892;23;20197;-87
2022/12/28 11:44:03;;;;;;;17.83;7.80;;;;;;;;;;6237476;22;20162;-89
2022/12/28 11:47:21;;;;;;;12.17;7.23;;;;;;;;;;6237289;23;20166;-90
2022/12/28 11:50:50;;;;;;;17.80;8.40;;;;;;;;;;6236910;22;20214;-89
2022/12/28 11:53:58;;;;;;;15.20;7.00;;;;;;;;;;6235757;23;20202;-88
2022/12/28 11:57:05;;;;;;;13.90;6.70;;;;;;;;;;6238420;23;20232;-89
2022/12/28 12:00:31;;;;;;;11.17;6.30;;;;;;;;;;6237893;23;20170;-88
2022/12/28 12:03:54;;;;;;;14.27;8.03;;;;;;;;;;6235546;23;20171;-89
2022/12/28 12:07:15;;;;;;;43.77;19.53;;;;;;;;;;6236440;23;20174;-88
2022/12/28 12:10:29;;;;;;;17.93;9.00;;;;;;;;;;6237358;23;20170;-90
2022/12/28 12:13:41;;;;;;;15.10;7.10;;;;;;;;;;6236994;23;20217;-89
2022/12/28 12:16:48;;;;;;;13.50;6.77;;;;;;;;;;6239388;23;20166;-87
2022/12/28 12:19:56;;;;;;;11.53;6.60;;;;;;;;;;6237097;22;20171;-88
2022/12/28 12:23:03;;;;;;;12.43;6.30;;;;;;;;;;6238146;23;20270;-90
2022/12/28 12:26:30;;;;;;;20.70;9.80;;;;;;;;;;6238586;22;20610;-89
2022/12/28 12:29:39;;;;;;;10.87;5.43;;;;;;;;;;6239241;23;20166;-88
2022/12/28 12:32:46;;;;;;;12.10;6.30;;;;;;;;;;6237678;23;20213;-89
2022/12/28 12:35:57;;;;;;;14.37;5.80;;;;;;;;;;6240415;23;20209;-87
2022/12/28 12:39:29;;;;;;;11.40;5.97;;;;;;;;;;6239053;23;20166;-89
2022/12/28 12:42:39;;;;;;;12.47;5.90;;;;;;;;;;6193940;23;20209;-89
2022/12/28 12:45:51;;;;;;;11.00;5.97;;;;;;;;;;6240378;23;20287;-90
2022/12/28 12:49:07;;;;;;;13.27;6.30;;;;;;;;;;6238937;23;20170;-89
2022/12/28 12:52:18;;;;;;;24.00;10.43;;;;;;;;;;6240832;23;20277;-91
2022/12/28 12:55:27;;;;;;;17.77;8.97;;;;;;;;;;6240220;23;20171;-90
2022/12/28 12:58:34;;;;;;;19.23;9.07;;;;;;;;;;6238837;22;20181;-89
2022/12/28 13:01:47;;;;;;;17.53;7.67;;;;;;;;;;6238976;22;20190;-90
2022/12/28 13:04:52;;;;;;;19.40;9.50;;;;;;;;;;6239595;22;20182;-90
2022/12/28 13:07:58;;;;;;;19.40;8.70;;;;;;;;;;6238875;23;20186;-89
2022/12/28 13:11:03;;;;;;;24.83;9.87;;;;;;;;;;6239643;22;20182;-91
2022/12/28 13:14:17;;;;;;;27.30;9.50;;;;;;;;;;6237697;22;20167;-91
2022/12/28 13:17:25;;;;;;;55.30;13.10;;;;;;;;;;6239547;23;20175;-90
2022/12/28 13:20:30;;;;;;;105.37;27.73;;;;;;;;;;6237705;23;20507;-89
2022/12/28 13:23:43;;;;;;;49.43;16.50;;;;;;;;;;6238034;23;20166;-89
2022/12/28 13:26:48;;;;;;;52.47;16.53;;;;;;;;;;6239816;22;20162;-91
2022/12/28 13:29:55;;;;;;;49.40;14.23;;;;;;;;;;6237193;22;20205;-92
2022/12/28 13:33:03;;;;;;;55.07;13.10;;;;;;;;;;6238345;23;20182;-90
2022/12/28 13:36:13;;;;;;;21.80;8.03;;;;;;;;;;6239069;23;20231;-89
2022/12/28 13:39:19;;;;;;;54.47;15.57;;;;;;;;;;6237304;23;20171;-91
2022/12/28 13:42:27;;;;;;;46.20;14.27;;;;;;;;;;6237998;22;20276;-92
2022/12/28 13:45:32;;;;;;;79.33;19.83;;;;;;;;;;6237478;23;20174;-90
2022/12/28 13:48:41;;;;;;;77.80;19.50;;;;;;;;;;6239326;22;20154;-91
2022/12/28 13:51:47;;;;;;;80.77;20.20;;;;;;;;;;6238121;23;20600;-90
2022/12/28 13:54:54;;;;;;;153.57;32.67;;;;;;;;;;6237934;22;20649;-90
2022/12/28 13:58:01;;;;;;;299.50;65.33;;;;;;;;;;6238954;23;20170;-89
2022/12/28 14:01:09;;;;;;;216.27;53.57;;;;;;;;;;6238140;23;20167;-90
2022/12/28 14:04:17;;;;;;;95.70;26.53;;;;;;;;;;6237473;22;20220;-89
2022/12/28 14:07:25;;;;;;;78.07;24.47;;;;;;;;;;6238143;22;20221;-90
2022/12/28 14:10:30;;;;;;;70.70;21.67;;;;;;;;;;6237104;23;20163;-89
2022/12/28 14:13:36;;;;;;;43.67;18.50;;;;;;;;;;6239706;22;20210;-90
2022/12/28 14:16:41;;;;;;;26.83;11.83;;;;;;;;;;6241212;23;20163;-91
2022/12/28 14:19:49;;;;;;;18.63;9.00;;;;;;;;;;6238138;22;20209;-89
2022/12/28 14:22:54;;;;;;;18.20;7.37;;;;;;;;;;6239361;23;20194;-90
2022/12/28 14:25:59;;;;;;;25.00;8.17;;;;;;;;;;6236366;23;20166;-89
2022/12/28 14:29:13;;;;;;;33.50;14.03;;;;;;;;;;6240481;23;20310;-92
2022/12/28 14:32:19;;;;;;;17.33;9.27;;;;;;;;;;6238568;23;20499;-91
2022/12/28 14:35:27;;;;;;;45.17;20.03;;;;;;;;;;6238304;23;20198;-89
2022/12/28 14:38:34;;;;;;;21.67;10.23;;;;;;;;;;6239942;23;20286;-89
2022/12/28 14:41:40;;;;;;;17.00;8.90;;;;;;;;;;6236664;23;20218;-90
2022/12/28 14:44:45;;;;;;;16.93;8.43;;;;;;;;;;6238703;23;20198;-90
2022/12/28 14:47:56;;;;;;;20.13;10.23;;;;;;;;;;6239075;22;20170;-89
2022/12/28 14:51:07;;;;;;;19.07;8.90;;;;;;;;;;6237772;22;20258;-88
2022/12/28 14:54:20;;;;;;;15.40;7.67;;;;;;;;;;6238044;22;20170;-90
2022/12/28 14:57:29;;;;;;;21.20;9.73;;;;;;;;;;6239121;23;20172;-90
2022/12/28 15:00:36;;;;;;;34.23;16.17;;;;;;;;;;6240154;22;20193;-91
2022/12/28 15:03:59;;;;;;;23.23;11.03;;;;;;;;;;6237753;22;20193;-89
2022/12/28 15:07:07;;;;;;;18.80;9.63;;;;;;;;;;6239068;23;20217;-89
2022/12/28 15:10:12;;;;;;;20.57;9.57;;;;;;;;;;6237682;23;20209;-91
2022/12/28 15:13:17;;;;;;;18.50;9.23;;;;;;;;;;6239663;23;20185;-91
2022/12/28 15:16:23;;;;;;;20.50;8.80;;;;;;;;;;6238511;23;20617;-90
2022/12/28 15:19:28;;;;;;;18.23;9.37;;;;;;;;;;6238546;23;20166;-88
2022/12/28 15:22:35;;;;;;;20.87;9.33;;;;;;;;;;6240821;23;20198;-89
2022/12/28 15:25:40;;;;;;;18.27;8.70;;;;;;;;;;6237933;22;20209;-91
2022/12/28 15:28:45;;;;;;;25.07;9.93;;;;;;;;;;6238082;23;20740;-88
2022/12/28 15:31:50;;;;;;;23.00;11.30;;;;;;;;;;6238353;23;20165;-89
2022/12/28 15:34:55;;;;;;;16.10;7.80;;;;;;;;;;6236889;23;20281;-89
2022/12/28 15:38:02;;;;;;;18.07;8.33;;;;;;;;;;6238225;22;20183;-90
2022/12/28 15:41:44;;;;;;;20.30;9.80;;;;;;;;;;6238370;23;20163;-89
2022/12/28 15:44:32;;;;;;;21.33;9.30;;;;;;;;;;6239304;22;20174;-90
2022/12/28 15:47:37;;;;;;;22.40;9.30;;;;;;;;;;6258128;23;20186;-89
2022/12/28 15:50:43;;;;;;;26.73;11.33;;;;;;;;;;6238723;23;20201;-90
2022/12/28 15:53:50;;;;;;;20.83;10.73;;;;;;;;;;6240033;23;20222;-90
2022/12/28 15:56:56;;;;;;;27.67;12.57;;;;;;;;;;6242781;22;20202;-89
2022/12/28 16:00:01;;;;;;;24.03;12.30;;;;;;;;;;6241786;23;20680;-89
2022/12/28 16:03:10;;;;;;;17.63;8.73;;;;;;;;;;6257695;22;20190;-91
2022/12/28 16:06:15;;;;;;;22.93;11.13;;;;;;;;;;6242120;23;20171;-88
2022/12/28 16:09:21;;;;;;;21.43;9.70;;;;;;;;;;6240712;23;20194;-90
2022/12/28 16:12:26;;;;;;;21.60;9.40;;;;;;;;;;6239541;23;20638;-90
2022/12/28 16:15:31;;;;;;;26.10;8.70;;;;;;;;;;6239956;22;20167;-88
2022/12/28 16:18:37;;;;;;;14.67;8.07;;;;;;;;;;6239658;23;20170;-91
2022/12/28 16:21:42;;;;;;;17.40;7.90;;;;;;;;;;6238588;23;20174;-91
2022/12/28 16:24:50;;;;;;;17.93;9.43;;;;;;;;;;6239348;22;20194;-89
2022/12/28 16:27:55;;;;;;;17.13;8.60;;;;;;;;;;6239917;23;20467;-89
2022/12/28 16:31:00;;;;;;;21.47;9.53;;;;;;;;;;6259076;23;20676;-88
2022/12/28 16:34:06;;;;;;;29.33;11.90;;;;;;;;;;6238630;23;20205;-88
2022/12/28 16:37:11;;;;;;;28.80;12.23;;;;;;;;;;6240029;23;20189;-90
2022/12/28 16:40:18;;;;;;;21.37;10.00;;;;;;;;;;6239563;23;20154;-89
2022/12/28 16:43:24;;;;;;;16.93;8.60;;;;;;;;;;6236722;23;20198;-90
2022/12/28 16:46:29;;;;;;;17.23;8.67;;;;;;;;;;6240366;22;20171;-89
2022/12/28 16:49:34;;;;;;;17.27;7.87;;;;;;;;;;6239841;23;20571;-90
2022/12/28 16:52:40;;;;;;;18.50;7.67;;;;;;;;;;6238617;23;20165;-88
2022/12/28 16:55:47;;;;;;;18.50;8.80;;;;;;;;;;6237866;22;20157;-90
2022/12/28 16:58:55;;;;;;;29.50;12.27;;;;;;;;;;6239738;22;20262;-89
2022/12/28 17:02:01;;;;;;;30.27;13.13;;;;;;;;;;6240919;22;20162;-89
2022/12/28 17:05:07;;;;;;;28.30;12.33;;;;;;;;;;6238225;22;20217;-92
2022/12/28 17:08:12;;;;;;;22.63;10.50;;;;;;;;;;6238813;23;20182;-84
2022/12/28 17:11:19;;;;;;;35.33;13.37;;;;;;;;;;6239002;23;20174;-89
2022/12/28 17:14:24;;;;;;;28.53;12.63;;;;;;;;;;6240466;23;20186;-90
2022/12/28 17:17:29;;;;;;;26.00;11.40;;;;;;;;;;6239023;23;20170;-88
2022/12/28 17:20:36;;;;;;;28.40;11.43;;;;;;;;;;6239035;23;20166;-91
2022/12/28 17:23:42;;;;;;;26.03;11.70;;;;;;;;;;6238147;23;20194;-88
2022/12/28 17:26:49;;;;;;;27.43;11.63;;;;;;;;;;6242937;23;20171;-91
2022/12/28 17:29:54;;;;;;;27.80;11.33;;;;;;;;;;6240622;22;20167;-88
2022/12/28 17:32:59;;;;;;;28.50;12.33;;;;;;;;;;6241489;23;20201;-89
2022/12/28 17:36:05;;;;;;;27.57;12.03;;;;;;;;;;6244165;22;20190;-90
2022/12/28 17:39:10;;;;;;;24.30;10.57;;;;;;;;;;6240988;22;20180;-92
2022/12/28 17:42:17;;;;;;;28.73;11.90;;;;;;;;;;6242163;23;20223;-89
2022/12/28 17:45:23;;;;;;;28.77;13.13;;;;;;;;;;6241460;23;20267;-92
2022/12/28 17:48:29;;;;;;;20.73;9.70;;;;;;;;;;6242469;23;20238;-92
2022/12/28 17:51:34;;;;;;;26.50;11.07;;;;;;;;;;6242249;23;20193;-91
2022/12/28 17:54:40;;;;;;;24.80;9.70;;;;;;;;;;6241687;22;20170;-91
2022/12/28 17:57:47;;;;;;;20.57;9.40;;;;;;;;;;6240787;23;20601;-90
2022/12/28 18:00:54;;;;;;;21.63;9.53;;;;;;;;;;6240715;23;20170;-91
2022/12/28 18:04:26;;;;;;;32.83;13.07;;;;;;;;;;6241368;23;20286;-90
2022/12/28 18:07:31;;;;;;;35.07;12.10;;;;;;;;;;6240694;23;20607;-89
2022/12/28 18:10:36;;;;;;;43.10;13.97;;;;;;;;;;6240045;23;20178;-91
2022/12/28 18:13:43;;;;;;;26.47;10.73;;;;;;;;;;6239204;23;20170;-90
2022/12/28 18:16:49;;;;;;;31.53;11.07;;;;;;;;;;6241581;23;20177;-90
2022/12/28 18:19:54;;;;;;;64.93;20.47;;;;;;;;;;6242547;22;20186;-90
2022/12/28 18:23:00;;;;;;;50.90;19.10;;;;;;;;;;6240894;22;20190;-90
2022/12/28 18:26:05;;;;;;;35.83;13.67;;;;;;;;;;6246880;23;20688;-90
2022/12/28 18:29:12;;;;;;;35.90;12.60;;;;;;;;;;6241378;23;20292;-88
2022/12/28 18:32:17;;;;;;;38.50;13.93;;;;;;;;;;6242073;23;20166;-90
2022/12/28 18:35:23;;;;;;;32.10;15.00;;;;;;;;;;6242506;23;20239;-90
2022/12/28 18:38:29;;;;;;;30.80;13.80;;;;;;;;;;6241518;22;20202;-89
2022/12/28 18:41:35;;;;;;;35.57;14.23;;;;;;;;;;6242027;22;20170;-89
2022/12/28 18:44:48;;;;;;;28.43;12.37;;;;;;;;;;6240489;23;20194;-89
2022/12/28 18:47:53;;;;;;;22.20;9.87;;;;;;;;;;6241390;23;20283;-89
2022/12/28 18:50:59;;;;;;;23.93;10.87;;;;;;;;;;6243186;23;20202;-88
2022/12/28 18:54:05;;;;;;;24.73;11.53;;;;;;;;;;6243177;23;20210;-88